sensor_id;sensor_type;location;lat;lon;timestamp;temperature;humidity
13682;DHT22;6913;49.892;7.936;2023-03-29T00:00:46;6.80;99.90
13682;DHT22;6913;49.892;7.936;2023-03-29T00:03:14;6.40;99.90
13682;DHT22;6913;49.892;7.936;2023-03-29T00:05:40;6.40;99.90
13682;DHT22;6913;49.892;7.936;2023-03-29T00:08:10;6.80;99.90
13682;DHT22;6913;49.892;7.936;2023-03-29T00:10:39;6.60;99.90
13682;DHT22;6913;49.892;7.936;2023-03-29T00:13:06;6.70;99.90
13682;DHT22;6913;49.892;7.936;2023-03-29T00:15:33;6.80;99.90
13682;DHT22;6913;49.892;7.936;2023-03-29T00:18:00;6.90;99.90
13682;DHT22;6913;49.892;7.936;2023-03-29T00:20:27;7.00;99.90
13682;DHT22;6913;49.892;7.936;2023-03-29T00:22:54;6.90;99.90
13682;DHT22;6913;49.892;7.936;2023-03-29T00:25:22;7.00;99.90
13682;DHT22;6913;49.892;7.936;2023-03-29T00:27:50;7.10;99.90
13682;DHT22;6913;49.892;7.936;2023-03-29T00:30:17;7.10;99.90
13682;DHT22;6913;49.892;7.936;2023-03-29T00:32:43;7.00;99.90
13682;DHT22;6913;49.892;7.936;2023-03-29T00:35:11;7.10;99.90
13682;DHT22;6913;49.892;7.936;2023-03-29T00:37:38;7.00;99.90
13682;DHT22;6913;49.892;7.936;2023-03-29T00:40:06;7.10;99.90
13682;DHT22;6913;49.892;7.936;2023-03-29T00:42:37;6.80;99.90
13682;DHT22;6913;49.892;7.936;2023-03-29T00:45:12;7.00;99.90
13682;DHT22;6913;49.892;7.936;2023-03-29T00:47:45;7.10;99.90
13682;DHT22;6913;49.892;7.936;2023-03-29T00:50:16;6.80;99.90
13682;DHT22;6913;49.892;7.936;2023-03-29T00:52:47;6.70;99.90
13682;DHT22;6913;49.892;7.936;2023-03-29T00:55:19;7.00;99.90
13682;DHT22;6913;49.892;7.936;2023-03-29T00:57:49;6.90;99.90
13682;DHT22;6913;49.892;7.936;2023-03-29T01:00:19;6.80;99.90
13682;DHT22;6913;49.892;7.936;2023-03-29T01:02:50;6.80;99.90
13682;DHT22;6913;49.892;7.936;2023-03-29T01:05:20;6.90;99.90
13682;DHT22;6913;49.892;7.936;2023-03-29T01:07:52;6.90;99.90
13682;DHT22;6913;49.892;7.936;2023-03-29T01:10:26;7.00;99.90
13682;DHT22;6913;49.892;7.936;2023-03-29T01:12:59;7.00;99.90
13682;DHT22;6913;49.892;7.936;2023-03-29T01:15:28;7.20;99.90
13682;DHT22;6913;49.892;7.936;2023-03-29T01:17:56;7.00;99.90
13682;DHT22;6913;49.892;7.936;2023-03-29T01:20:34;7.50;99.90
13682;DHT22;6913;49.892;7.936;2023-03-29T01:23:19;7.00;99.90
13682;DHT22;6913;49.892;7.936;2023-03-29T01:25:58;7.00;99.90
13682;DHT22;6913;49.892;7.936;2023-03-29T01:28:32;7.60;99.90
13682;DHT22;6913;49.892;7.936;2023-03-29T01:31:03;7.00;99.90
13682;DHT22;6913;49.892;7.936;2023-03-29T01:33:36;7.00;99.90
13682;DHT22;6913;49.892;7.936;2023-03-29T01:36:08;7.00;99.90
13682;DHT22;6913;49.892;7.936;2023-03-29T01:42:17;6.90;99.90
13682;DHT22;6913;49.892;7.936;2023-03-29T01:44:51;6.80;99.90
13682;DHT22;6913;49.892;7.936;2023-03-29T01:47:26;6.80;99.90
13682;DHT22;6913;49.892;7.936;2023-03-29T01:50:01;7.20;99.90
13682;DHT22;6913;49.892;7.936;2023-03-29T01:52:33;7.10;99.90
13682;DHT22;6913;49.892;7.936;2023-03-29T01:55:04;7.00;99.90
13682;DHT22;6913;49.892;7.936;2023-03-29T01:57:33;7.00;99.90
13682;DHT22;6913;49.892;7.936;2023-03-29T02:00:04;7.20;99.90
13682;DHT22;6913;49.892;7.936;2023-03-29T02:02:37;6.90;99.90
13682;DHT22;6913;49.892;7.936;2023-03-29T02:05:06;6.80;99.90
13682;DHT22;6913;49.892;7.936;2023-03-29T02:07:35;6.90;99.90
13682;DHT22;6913;49.892;7.936;2023-03-29T02:10:07;7.20;99.90
13682;DHT22;6913;49.892;7.936;2023-03-29T02:12:35;6.90;99.90
13682;DHT22;6913;49.892;7.936;2023-03-29T02:15:09;6.90;99.90
13682;DHT22;6913;49.892;7.936;2023-03-29T02:17:36;6.90;99.90
13682;DHT22;6913;49.892;7.936;2023-03-29T02:20:06;7.20;99.90
13682;DHT22;6913;49.892;7.936;2023-03-29T02:22:44;6.70;99.90
13682;DHT22;6913;49.892;7.936;2023-03-29T02:25:13;6.80;99.90
13682;DHT22;6913;49.892;7.936;2023-03-29T02:27:40;6.70;99.90
13682;DHT22;6913;49.892;7.936;2023-03-29T02:30:10;6.80;99.90
13682;DHT22;6913;49.892;7.936;2023-03-29T02:32:45;6.90;99.90
13682;DHT22;6913;49.892;7.936;2023-03-29T02:35:19;6.90;99.90
13682;DHT22;6913;49.892;7.936;2023-03-29T02:37:47;7.20;99.90
13682;DHT22;6913;49.892;7.936;2023-03-29T02:40:17;7.20;99.90
13682;DHT22;6913;49.892;7.936;2023-03-29T02:42:46;6.80;99.90
13682;DHT22;6913;49.892;7.936;2023-03-29T02:45:16;6.70;99.90
13682;DHT22;6913;49.892;7.936;2023-03-29T02:47:46;6.80;99.90
13682;DHT22;6913;49.892;7.936;2023-03-29T02:50:16;6.80;99.90
13682;DHT22;6913;49.892;7.936;2023-03-29T02:52:49;6.90;99.90
13682;DHT22;6913;49.892;7.936;2023-03-29T02:55:18;6.90;99.90
13682;DHT22;6913;49.892;7.936;2023-03-29T02:57:47;6.90;99.90
13682;DHT22;6913;49.892;7.936;2023-03-29T03:00:16;7.30;99.90
13682;DHT22;6913;49.892;7.936;2023-03-29T03:02:45;6.90;99.90
13682;DHT22;6913;49.892;7.936;2023-03-29T03:05:12;6.80;99.90
13682;DHT22;6913;49.892;7.936;2023-03-29T03:07:39;6.80;99.90
13682;DHT22;6913;49.892;7.936;2023-03-29T03:10:07;6.80;99.90
13682;DHT22;6913;49.892;7.936;2023-03-29T03:12:34;6.80;99.90
13682;DHT22;6913;49.892;7.936;2023-03-29T03:15:02;6.80;99.90
13682;DHT22;6913;49.892;7.936;2023-03-29T03:17:31;7.30;99.90
13682;DHT22;6913;49.892;7.936;2023-03-29T03:19:58;6.90;99.90
13682;DHT22;6913;49.892;7.936;2023-03-29T03:22:25;6.80;99.90
13682;DHT22;6913;49.892;7.936;2023-03-29T03:24:52;7.00;99.90
13682;DHT22;6913;49.892;7.936;2023-03-29T03:27:20;7.30;99.90
13682;DHT22;6913;49.892;7.936;2023-03-29T03:29:47;7.60;99.90
13682;DHT22;6913;49.892;7.936;2023-03-29T03:32:14;6.80;99.90
13682;DHT22;6913;49.892;7.936;2023-03-29T03:34:43;6.70;99.90
13682;DHT22;6913;49.892;7.936;2023-03-29T03:37:10;6.70;99.90
13682;DHT22;6913;49.892;7.936;2023-03-29T03:39:37;6.90;99.90
13682;DHT22;6913;49.892;7.936;2023-03-29T03:42:04;6.50;99.90
13682;DHT22;6913;49.892;7.936;2023-03-29T03:44:31;6.50;99.90
13682;DHT22;6913;49.892;7.936;2023-03-29T03:46:58;6.90;99.90
13682;DHT22;6913;49.892;7.936;2023-03-29T03:49:25;6.60;99.90
13682;DHT22;6913;49.892;7.936;2023-03-29T03:51:54;6.70;99.90
13682;DHT22;6913;49.892;7.936;2023-03-29T03:54:21;6.70;99.90
13682;DHT22;6913;49.892;7.936;2023-03-29T03:56:47;6.60;99.90
13682;DHT22;6913;49.892;7.936;2023-03-29T03:59:14;6.70;99.90
13682;DHT22;6913;49.892;7.936;2023-03-29T04:01:41;6.70;99.90
13682;DHT22;6913;49.892;7.936;2023-03-29T04:04:09;7.00;99.90
13682;DHT22;6913;49.892;7.936;2023-03-29T04:06:37;6.80;99.90
13682;DHT22;6913;49.892;7.936;2023-03-29T04:09:06;6.50;99.90
13682;DHT22;6913;49.892;7.936;2023-03-29T04:11:34;6.80;99.90
13682;DHT22;6913;49.892;7.936;2023-03-29T04:14:01;6.70;99.90
13682;DHT22;6913;49.892;7.936;2023-03-29T04:16:29;6.60;99.90
13682;DHT22;6913;49.892;7.936;2023-03-29T04:18:56;6.60;99.90
13682;DHT22;6913;49.892;7.936;2023-03-29T04:21:23;6.90;99.90
13682;DHT22;6913;49.892;7.936;2023-03-29T04:23:50;6.60;99.90
13682;DHT22;6913;49.892;7.936;2023-03-29T04:26:18;6.60;99.90
13682;DHT22;6913;49.892;7.936;2023-03-29T04:28:45;6.60;99.90
13682;DHT22;6913;49.892;7.936;2023-03-29T04:31:13;6.60;99.90
13682;DHT22;6913;49.892;7.936;2023-03-29T04:33:40;6.80;99.90
13682;DHT22;6913;49.892;7.936;2023-03-29T04:36:07;6.50;99.90
13682;DHT22;6913;49.892;7.936;2023-03-29T04:38:34;6.40;99.90
13682;DHT22;6913;49.892;7.936;2023-03-29T04:41:02;6.40;99.90
13682;DHT22;6913;49.892;7.936;2023-03-29T04:43:31;6.40;99.90
13682;DHT22;6913;49.892;7.936;2023-03-29T04:45:59;6.40;99.90
13682;DHT22;6913;49.892;7.936;2023-03-29T04:48:26;6.40;99.90
13682;DHT22;6913;49.892;7.936;2023-03-29T04:50:56;6.40;99.90
13682;DHT22;6913;49.892;7.936;2023-03-29T04:53:23;6.40;99.90
13682;DHT22;6913;49.892;7.936;2023-03-29T04:55:50;6.30;99.90
13682;DHT22;6913;49.892;7.936;2023-03-29T04:58:17;6.40;99.90
13682;DHT22;6913;49.892;7.936;2023-03-29T05:00:46;6.50;99.90
13682;DHT22;6913;49.892;7.936;2023-03-29T05:03:14;6.70;99.90
13682;DHT22;6913;49.892;7.936;2023-03-29T05:05:40;6.90;99.90
13682;DHT22;6913;49.892;7.936;2023-03-29T05:08:19;6.60;99.90
13682;DHT22;6913;49.892;7.936;2023-03-29T05:10:46;6.20;99.90
13682;DHT22;6913;49.892;7.936;2023-03-29T05:13:14;6.40;99.90
13682;DHT22;6913;49.892;7.936;2023-03-29T05:15:41;6.60;99.90
13682;DHT22;6913;49.892;7.936;2023-03-29T05:18:10;6.50;99.90
13682;DHT22;6913;49.892;7.936;2023-03-29T05:20:37;6.30;99.90
13682;DHT22;6913;49.892;7.936;2023-03-29T05:23:05;6.40;99.90
13682;DHT22;6913;49.892;7.936;2023-03-29T05:25:31;6.30;99.90
13682;DHT22;6913;49.892;7.936;2023-03-29T05:27:59;6.50;99.90
13682;DHT22;6913;49.892;7.936;2023-03-29T05:30:26;6.30;99.90
13682;DHT22;6913;49.892;7.936;2023-03-29T05:32:54;6.90;99.90
13682;DHT22;6913;49.892;7.936;2023-03-29T05:35:22;6.40;99.90
13682;DHT22;6913;49.892;7.936;2023-03-29T05:37:50;6.40;99.90
13682;DHT22;6913;49.892;7.936;2023-03-29T05:40:18;6.50;99.90
13682;DHT22;6913;49.892;7.936;2023-03-29T05:42:45;6.50;99.90
13682;DHT22;6913;49.892;7.936;2023-03-29T05:45:12;6.50;99.90
13682;DHT22;6913;49.892;7.936;2023-03-29T05:47:39;6.60;99.90
13682;DHT22;6913;49.892;7.936;2023-03-29T05:50:07;6.60;99.90
13682;DHT22;6913;49.892;7.936;2023-03-29T05:52:36;6.60;99.90
13682;DHT22;6913;49.892;7.936;2023-03-29T05:55:04;6.60;99.90
13682;DHT22;6913;49.892;7.936;2023-03-29T05:57:31;6.60;99.90
13682;DHT22;6913;49.892;7.936;2023-03-29T05:59:58;6.60;99.90
13682;DHT22;6913;49.892;7.936;2023-03-29T06:02:24;6.60;99.90
13682;DHT22;6913;49.892;7.936;2023-03-29T06:04:53;6.60;99.90
13682;DHT22;6913;49.892;7.936;2023-03-29T06:07:21;6.20;99.90
13682;DHT22;6913;49.892;7.936;2023-03-29T06:09:50;6.20;99.90
13682;DHT22;6913;49.892;7.936;2023-03-29T06:12:17;6.40;99.90
13682;DHT22;6913;49.892;7.936;2023-03-29T06:14:46;6.50;99.90
13682;DHT22;6913;49.892;7.936;2023-03-29T06:17:13;6.60;99.90
13682;DHT22;6913;49.892;7.936;2023-03-29T06:19:40;6.60;99.90
13682;DHT22;6913;49.892;7.936;2023-03-29T06:22:07;6.60;99.90
13682;DHT22;6913;49.892;7.936;2023-03-29T06:24:33;6.70;99.90
13682;DHT22;6913;49.892;7.936;2023-03-29T06:27:02;6.80;99.90
13682;DHT22;6913;49.892;7.936;2023-03-29T06:29:29;6.80;99.90
13682;DHT22;6913;49.892;7.936;2023-03-29T06:31:56;6.90;99.90
13682;DHT22;6913;49.892;7.936;2023-03-29T06:34:23;6.70;99.90
13682;DHT22;6913;49.892;7.936;2023-03-29T06:36:50;6.90;99.90
13682;DHT22;6913;49.892;7.936;2023-03-29T06:39:17;6.90;99.90
13682;DHT22;6913;49.892;7.936;2023-03-29T06:41:44;7.00;99.90
13682;DHT22;6913;49.892;7.936;2023-03-29T06:44:12;7.10;99.90
13682;DHT22;6913;49.892;7.936;2023-03-29T06:46:39;7.20;99.90
13682;DHT22;6913;49.892;7.936;2023-03-29T06:49:06;7.00;99.90
13682;DHT22;6913;49.892;7.936;2023-03-29T06:51:34;7.00;99.90
13682;DHT22;6913;49.892;7.936;2023-03-29T06:54:01;7.10;99.90
13682;DHT22;6913;49.892;7.936;2023-03-29T06:56:29;7.10;99.90
13682;DHT22;6913;49.892;7.936;2023-03-29T06:58:57;7.10;99.90
13682;DHT22;6913;49.892;7.936;2023-03-29T07:01:25;7.30;99.90
13682;DHT22;6913;49.892;7.936;2023-03-29T07:03:53;7.40;99.90
13682;DHT22;6913;49.892;7.936;2023-03-29T07:06:21;7.40;99.90
13682;DHT22;6913;49.892;7.936;2023-03-29T07:08:48;7.40;99.90
13682;DHT22;6913;49.892;7.936;2023-03-29T07:11:17;7.50;99.90
13682;DHT22;6913;49.892;7.936;2023-03-29T07:13:45;7.60;99.90
13682;DHT22;6913;49.892;7.936;2023-03-29T07:16:13;7.60;99.90
13682;DHT22;6913;49.892;7.936;2023-03-29T07:18:42;7.70;99.90
13682;DHT22;6913;49.892;7.936;2023-03-29T07:21:10;7.80;99.90
13682;DHT22;6913;49.892;7.936;2023-03-29T07:23:38;7.80;99.90
13682;DHT22;6913;49.892;7.936;2023-03-29T07:26:05;8.00;76.20
13682;DHT22;6913;49.892;7.936;2023-03-29T07:28:33;7.90;62.50
13682;DHT22;6913;49.892;7.936;2023-03-29T07:31:02;8.00;56.80
13682;DHT22;6913;49.892;7.936;2023-03-29T07:33:31;8.00;94.40
13682;DHT22;6913;49.892;7.936;2023-03-29T07:35:59;8.20;70.80
13682;DHT22;6913;49.892;7.936;2023-03-29T07:38:26;8.30;69.30
13682;DHT22;6913;49.892;7.936;2023-03-29T07:40:53;8.40;77.30
13682;DHT22;6913;49.892;7.936;2023-03-29T07:43:20;8.60;99.90
13682;DHT22;6913;49.892;7.936;2023-03-29T07:45:48;8.70;24.50
13682;DHT22;6913;49.892;7.936;2023-03-29T07:48:16;8.60;99.90
13682;DHT22;6913;49.892;7.936;2023-03-29T07:50:44;8.60;42.10
13682;DHT22;6913;49.892;7.936;2023-03-29T07:53:12;8.80;33.80
13682;DHT22;6913;49.892;7.936;2023-03-29T07:55:40;8.90;19.70
13682;DHT22;6913;49.892;7.936;2023-03-29T07:58:11;9.00;43.10
13682;DHT22;6913;49.892;7.936;2023-03-29T08:00:39;9.20;44.50
13682;DHT22;6913;49.892;7.936;2023-03-29T08:03:06;9.30;1.00
13682;DHT22;6913;49.892;7.936;2023-03-29T08:05:33;9.30;1.00
13682;DHT22;6913;49.892;7.936;2023-03-29T08:08:00;9.50;27.40
13682;DHT22;6913;49.892;7.936;2023-03-29T08:10:29;9.60;1.00
13682;DHT22;6913;49.892;7.936;2023-03-29T08:12:56;9.50;1.00
13682;DHT22;6913;49.892;7.936;2023-03-29T08:15:23;9.60;1.00
13682;DHT22;6913;49.892;7.936;2023-03-29T08:17:51;9.30;7.70
13682;DHT22;6913;49.892;7.936;2023-03-29T08:20:18;9.90;1.00
13682;DHT22;6913;49.892;7.936;2023-03-29T08:22:45;9.70;1.00
13682;DHT22;6913;49.892;7.936;2023-03-29T08:25:13;10.10;1.00
13682;DHT22;6913;49.892;7.936;2023-03-29T08:27:41;9.60;1.00
13682;DHT22;6913;49.892;7.936;2023-03-29T08:30:10;9.50;1.00
13682;DHT22;6913;49.892;7.936;2023-03-29T08:32:37;9.60;1.00
13682;DHT22;6913;49.892;7.936;2023-03-29T08:35:04;10.00;1.00
13682;DHT22;6913;49.892;7.936;2023-03-29T08:37:33;9.70;1.00
13682;DHT22;6913;49.892;7.936;2023-03-29T08:40:00;9.70;1.00
13682;DHT22;6913;49.892;7.936;2023-03-29T08:42:59;9.90;1.00
13682;DHT22;6913;49.892;7.936;2023-03-29T08:45:34;9.50;1.00
13682;DHT22;6913;49.892;7.936;2023-03-29T08:48:11;9.40;1.00
13682;DHT22;6913;49.892;7.936;2023-03-29T08:50:44;9.40;1.00
13682;DHT22;6913;49.892;7.936;2023-03-29T08:53:17;8.90;1.00
13682;DHT22;6913;49.892;7.936;2023-03-29T08:55:47;9.30;47.90
13682;DHT22;6913;49.892;7.936;2023-03-29T08:58:17;9.30;12.50
13682;DHT22;6913;49.892;7.936;2023-03-29T09:00:47;9.60;1.00
13682;DHT22;6913;49.892;7.936;2023-03-29T09:03:21;9.90;1.00
13682;DHT22;6913;49.892;7.936;2023-03-29T09:05:50;9.60;1.00
13682;DHT22;6913;49.892;7.936;2023-03-29T09:08:20;10.00;1.00
13682;DHT22;6913;49.892;7.936;2023-03-29T09:10:58;10.30;1.00
13682;DHT22;6913;49.892;7.936;2023-03-29T09:13:35;10.10;1.00
13682;DHT22;6913;49.892;7.936;2023-03-29T09:16:11;10.00;1.00
13682;DHT22;6913;49.892;7.936;2023-03-29T09:18:51;10.30;1.00
13682;DHT22;6913;49.892;7.936;2023-03-29T09:21:27;10.60;1.00
13682;DHT22;6913;49.892;7.936;2023-03-29T09:24:37;11.20;1.00
13682;DHT22;6913;49.892;7.936;2023-03-29T09:27:09;10.90;1.00
13682;DHT22;6913;49.892;7.936;2023-03-29T09:32:37;11.30;1.00
13682;DHT22;6913;49.892;7.936;2023-03-29T09:35:13;11.00;1.00
13682;DHT22;6913;49.892;7.936;2023-03-29T09:37:45;11.20;1.00
13682;DHT22;6913;49.892;7.936;2023-03-29T09:40:16;11.30;1.00
13682;DHT22;6913;49.892;7.936;2023-03-29T09:42:45;11.40;1.00
13682;DHT22;6913;49.892;7.936;2023-03-29T09:45:14;11.60;1.00
13682;DHT22;6913;49.892;7.936;2023-03-29T09:47:45;11.80;1.00
13682;DHT22;6913;49.892;7.936;2023-03-29T09:50:15;12.10;1.00
13682;DHT22;6913;49.892;7.936;2023-03-29T09:52:43;12.20;1.00
13682;DHT22;6913;49.892;7.936;2023-03-29T09:55:13;12.40;99.90
13682;DHT22;6913;49.892;7.936;2023-03-29T09:57:41;12.50;1.00
13682;DHT22;6913;49.892;7.936;2023-03-29T10:00:11;12.70;1.00
13682;DHT22;6913;49.892;7.936;2023-03-29T10:02:51;12.60;99.90
13682;DHT22;6913;49.892;7.936;2023-03-29T10:05:18;12.90;1.00
13682;DHT22;6913;49.892;7.936;2023-03-29T10:07:50;13.20;1.00
13682;DHT22;6913;49.892;7.936;2023-03-29T10:10:21;13.20;27.70
13682;DHT22;6913;49.892;7.936;2023-03-29T10:12:51;13.20;99.90
13682;DHT22;6913;49.892;7.936;2023-03-29T10:15:20;13.30;1.00
13682;DHT22;6913;49.892;7.936;2023-03-29T10:17:47;14.00;1.00
13682;DHT22;6913;49.892;7.936;2023-03-29T10:20:18;14.10;99.90
13682;DHT22;6913;49.892;7.936;2023-03-29T10:22:47;14.20;1.00
13682;DHT22;6913;49.892;7.936;2023-03-29T10:25:16;14.30;1.00
13682;DHT22;6913;49.892;7.936;2023-03-29T10:27:44;15.00;1.00
13682;DHT22;6913;49.892;7.936;2023-03-29T10:30:19;15.70;99.90
13682;DHT22;6913;49.892;7.936;2023-03-29T10:32:53;15.80;1.00
13682;DHT22;6913;49.892;7.936;2023-03-29T10:35:26;15.00;1.00
13682;DHT22;6913;49.892;7.936;2023-03-29T10:37:56;15.40;1.00
13682;DHT22;6913;49.892;7.936;2023-03-29T10:40:26;16.20;1.00
13682;DHT22;6913;49.892;7.936;2023-03-29T10:42:58;16.70;99.90
13682;DHT22;6913;49.892;7.936;2023-03-29T10:45:27;16.70;1.00
13682;DHT22;6913;49.892;7.936;2023-03-29T10:47:55;17.10;99.90
13682;DHT22;6913;49.892;7.936;2023-03-29T10:50:24;17.50;85.40
13682;DHT22;6913;49.892;7.936;2023-03-29T10:52:51;17.60;1.00
13682;DHT22;6913;49.892;7.936;2023-03-29T10:55:19;17.70;1.00
13682;DHT22;6913;49.892;7.936;2023-03-29T10:57:55;17.50;99.90
13682;DHT22;6913;49.892;7.936;2023-03-29T11:00:31;18.10;1.00
13682;DHT22;6913;49.892;7.936;2023-03-29T11:06:04;18.00;99.90
13682;DHT22;6913;49.892;7.936;2023-03-29T11:08:41;17.70;99.90
13682;DHT22;6913;49.892;7.936;2023-03-29T11:11:20;18.10;1.00
13682;DHT22;6913;49.892;7.936;2023-03-29T11:13:54;17.70;1.00
13682;DHT22;6913;49.892;7.936;2023-03-29T11:16:29;17.50;99.90
13682;DHT22;6913;49.892;7.936;2023-03-29T11:19:10;17.10;1.00
13682;DHT22;6913;49.892;7.936;2023-03-29T11:21:42;17.60;99.90
13682;DHT22;6913;49.892;7.936;2023-03-29T11:24:25;17.70;1.00
13682;DHT22;6913;49.892;7.936;2023-03-29T11:27:02;17.80;1.00
13682;DHT22;6913;49.892;7.936;2023-03-29T11:29:36;17.80;1.00
13682;DHT22;6913;49.892;7.936;2023-03-29T11:32:12;18.00;1.00
13682;DHT22;6913;49.892;7.936;2023-03-29T11:34:51;18.10;1.00
13682;DHT22;6913;49.892;7.936;2023-03-29T11:37:29;18.10;99.90
13682;DHT22;6913;49.892;7.936;2023-03-29T11:40:08;18.30;1.00
13682;DHT22;6913;49.892;7.936;2023-03-29T11:42:44;17.70;1.00
13682;DHT22;6913;49.892;7.936;2023-03-29T11:45:17;17.20;1.00
13682;DHT22;6913;49.892;7.936;2023-03-29T11:47:47;17.20;99.90
13682;DHT22;6913;49.892;7.936;2023-03-29T11:50:19;17.10;1.00
13682;DHT22;6913;49.892;7.936;2023-03-29T11:52:52;17.00;1.00
13682;DHT22;6913;49.892;7.936;2023-03-29T11:55:22;17.20;99.90
13682;DHT22;6913;49.892;7.936;2023-03-29T11:57:53;17.10;1.00
13682;DHT22;6913;49.892;7.936;2023-03-29T12:00:25;17.40;1.00
13682;DHT22;6913;49.892;7.936;2023-03-29T12:02:58;17.70;1.00
13682;DHT22;6913;49.892;7.936;2023-03-29T12:05:30;18.30;99.90
13682;DHT22;6913;49.892;7.936;2023-03-29T12:08:03;18.70;1.00
13682;DHT22;6913;49.892;7.936;2023-03-29T12:10:34;18.80;99.90
13682;DHT22;6913;49.892;7.936;2023-03-29T12:13:05;18.40;1.00
13682;DHT22;6913;49.892;7.936;2023-03-29T12:15:35;18.50;99.90
13682;DHT22;6913;49.892;7.936;2023-03-29T12:18:11;18.80;1.00
13682;DHT22;6913;49.892;7.936;2023-03-29T12:20:41;19.10;99.90
13682;DHT22;6913;49.892;7.936;2023-03-29T12:23:13;18.60;1.00
13682;DHT22;6913;49.892;7.936;2023-03-29T12:25:47;18.50;99.90
13682;DHT22;6913;49.892;7.936;2023-03-29T12:28:24;18.70;1.00
13682;DHT22;6913;49.892;7.936;2023-03-29T12:30:57;18.90;99.90
13682;DHT22;6913;49.892;7.936;2023-03-29T12:33:54;18.70;99.90
13682;DHT22;6913;49.892;7.936;2023-03-29T12:36:41;18.40;99.90
13682;DHT22;6913;49.892;7.936;2023-03-29T12:39:14;17.00;99.90
13682;DHT22;6913;49.892;7.936;2023-03-29T12:41:42;18.30;99.90
13682;DHT22;6913;49.892;7.936;2023-03-29T12:44:14;18.20;1.00
13682;DHT22;6913;49.892;7.936;2023-03-29T12:46:43;18.50;99.90
13682;DHT22;6913;49.892;7.936;2023-03-29T12:49:13;18.20;99.90
13682;DHT22;6913;49.892;7.936;2023-03-29T12:51:46;18.20;1.00
13682;DHT22;6913;49.892;7.936;2023-03-29T12:54:16;18.30;99.90
13682;DHT22;6913;49.892;7.936;2023-03-29T12:56:54;18.90;99.90
13682;DHT22;6913;49.892;7.936;2023-03-29T12:59:33;19.30;99.90
13682;DHT22;6913;49.892;7.936;2023-03-29T13:02:18;19.40;1.00
13682;DHT22;6913;49.892;7.936;2023-03-29T13:04:52;19.50;1.00
13682;DHT22;6913;49.892;7.936;2023-03-29T13:07:29;19.50;1.00
13682;DHT22;6913;49.892;7.936;2023-03-29T13:09:58;19.90;1.00
13682;DHT22;6913;49.892;7.936;2023-03-29T13:12:28;20.00;1.00
13682;DHT22;6913;49.892;7.936;2023-03-29T13:14:58;20.00;1.00
13682;DHT22;6913;49.892;7.936;2023-03-29T13:17:33;20.10;1.00
13682;DHT22;6913;49.892;7.936;2023-03-29T13:20:17;19.90;1.00
13682;DHT22;6913;49.892;7.936;2023-03-29T13:22:54;19.70;1.00
13682;DHT22;6913;49.892;7.936;2023-03-29T13:25:44;19.90;1.00
13682;DHT22;6913;49.892;7.936;2023-03-29T13:28:17;19.70;1.00
13682;DHT22;6913;49.892;7.936;2023-03-29T13:30:57;19.40;1.00
13682;DHT22;6913;49.892;7.936;2023-03-29T13:33:43;19.30;1.00
13682;DHT22;6913;49.892;7.936;2023-03-29T13:36:22;19.60;1.00
13682;DHT22;6913;49.892;7.936;2023-03-29T13:38:53;20.00;1.00
13682;DHT22;6913;49.892;7.936;2023-03-29T13:41:31;20.30;1.00
13682;DHT22;6913;49.892;7.936;2023-03-29T13:43:59;19.90;1.00
13682;DHT22;6913;49.892;7.936;2023-03-29T13:46:37;19.80;1.00
13682;DHT22;6913;49.892;7.936;2023-03-29T13:49:16;19.80;1.00
13682;DHT22;6913;49.892;7.936;2023-03-29T13:52:01;19.50;1.00
13682;DHT22;6913;49.892;7.936;2023-03-29T13:54:33;19.50;1.00
13682;DHT22;6913;49.892;7.936;2023-03-29T13:57:09;19.30;1.00
13682;DHT22;6913;49.892;7.936;2023-03-29T13:59:45;19.30;1.00
13682;DHT22;6913;49.892;7.936;2023-03-29T14:02:20;19.50;19.30
13682;DHT22;6913;49.892;7.936;2023-03-29T14:04:49;19.60;1.00
13682;DHT22;6913;49.892;7.936;2023-03-29T14:07:19;19.60;9.00
13682;DHT22;6913;49.892;7.936;2023-03-29T14:09:51;19.60;1.00
13682;DHT22;6913;49.892;7.936;2023-03-29T14:12:20;19.00;1.00
13682;DHT22;6913;49.892;7.936;2023-03-29T14:14:48;19.10;1.00
13682;DHT22;6913;49.892;7.936;2023-03-29T14:17:18;19.20;99.90
13682;DHT22;6913;49.892;7.936;2023-03-29T14:19:46;18.90;99.90
13682;DHT22;6913;49.892;7.936;2023-03-29T14:22:15;18.80;99.90
13682;DHT22;6913;49.892;7.936;2023-03-29T14:24:46;18.60;99.90
13682;DHT22;6913;49.892;7.936;2023-03-29T14:27:14;18.40;99.90
13682;DHT22;6913;49.892;7.936;2023-03-29T14:29:45;18.30;99.90
13682;DHT22;6913;49.892;7.936;2023-03-29T14:32:15;18.30;1.00
13682;DHT22;6913;49.892;7.936;2023-03-29T14:34:42;18.20;1.00
13682;DHT22;6913;49.892;7.936;2023-03-29T14:37:11;18.10;1.00
13682;DHT22;6913;49.892;7.936;2023-03-29T14:39:39;18.20;1.00
13682;DHT22;6913;49.892;7.936;2023-03-29T14:42:13;18.20;1.00
13682;DHT22;6913;49.892;7.936;2023-03-29T14:44:42;17.90;1.00
13682;DHT22;6913;49.892;7.936;2023-03-29T14:47:15;17.80;1.00
13682;DHT22;6913;49.892;7.936;2023-03-29T14:49:43;17.90;1.00
13682;DHT22;6913;49.892;7.936;2023-03-29T14:52:12;17.80;1.00
13682;DHT22;6913;49.892;7.936;2023-03-29T14:54:45;17.90;1.00
13682;DHT22;6913;49.892;7.936;2023-03-29T14:57:14;17.90;1.00
13682;DHT22;6913;49.892;7.936;2023-03-29T14:59:47;17.80;1.00
13682;DHT22;6913;49.892;7.936;2023-03-29T15:02:24;17.70;1.00
13682;DHT22;6913;49.892;7.936;2023-03-29T15:04:56;17.80;1.00
13682;DHT22;6913;49.892;7.936;2023-03-29T15:07:24;17.80;1.00
13682;DHT22;6913;49.892;7.936;2023-03-29T15:09:53;17.70;1.00
13682;DHT22;6913;49.892;7.936;2023-03-29T15:12:20;17.80;1.00
13682;DHT22;6913;49.892;7.936;2023-03-29T15:14:48;17.80;1.00
13682;DHT22;6913;49.892;7.936;2023-03-29T15:17:26;17.90;1.00
13682;DHT22;6913;49.892;7.936;2023-03-29T15:19:57;17.70;1.00
13682;DHT22;6913;49.892;7.936;2023-03-29T15:22:30;17.60;1.00
13682;DHT22;6913;49.892;7.936;2023-03-29T15:24:58;17.60;99.90
13682;DHT22;6913;49.892;7.936;2023-03-29T15:27:26;17.70;99.90
13682;DHT22;6913;49.892;7.936;2023-03-29T15:29:59;17.70;83.10
13682;DHT22;6913;49.892;7.936;2023-03-29T15:32:33;17.50;1.00
13682;DHT22;6913;49.892;7.936;2023-03-29T15:35:03;17.50;99.90
13682;DHT22;6913;49.892;7.936;2023-03-29T15:37:31;17.30;99.90
13682;DHT22;6913;49.892;7.936;2023-03-29T15:39:58;17.30;99.90
13682;DHT22;6913;49.892;7.936;2023-03-29T15:42:25;17.20;1.00
13682;DHT22;6913;49.892;7.936;2023-03-29T15:44:53;17.10;99.90
13682;DHT22;6913;49.892;7.936;2023-03-29T15:47:20;17.20;1.00
13682;DHT22;6913;49.892;7.936;2023-03-29T15:49:49;17.10;87.50
13682;DHT22;6913;49.892;7.936;2023-03-29T15:52:16;17.00;1.00
13682;DHT22;6913;49.892;7.936;2023-03-29T15:54:43;17.00;84.00
13682;DHT22;6913;49.892;7.936;2023-03-29T15:57:13;17.00;99.90
13682;DHT22;6913;49.892;7.936;2023-03-29T15:59:41;16.90;99.90
13682;DHT22;6913;49.892;7.936;2023-03-29T16:02:11;16.80;99.90
13682;DHT22;6913;49.892;7.936;2023-03-29T16:04:40;16.80;99.90
13682;DHT22;6913;49.892;7.936;2023-03-29T16:07:13;16.80;99.90
13682;DHT22;6913;49.892;7.936;2023-03-29T16:09:40;16.80;99.90
13682;DHT22;6913;49.892;7.936;2023-03-29T16:12:08;16.70;1.00
13682;DHT22;6913;49.892;7.936;2023-03-29T16:14:35;16.60;1.00
13682;DHT22;6913;49.892;7.936;2023-03-29T16:17:02;16.60;1.00
13682;DHT22;6913;49.892;7.936;2023-03-29T16:19:31;16.50;1.00
13682;DHT22;6913;49.892;7.936;2023-03-29T16:21:59;16.40;1.00
13682;DHT22;6913;49.892;7.936;2023-03-29T16:24:29;16.40;1.00
13682;DHT22;6913;49.892;7.936;2023-03-29T16:26:57;16.30;1.00
13682;DHT22;6913;49.892;7.936;2023-03-29T16:29:26;16.20;1.00